Accueil
METAR-TAF:

METAR-TAF

Aéroports :

Aéroport international Indira-Gandhi

New Delhi, Inde

latitude: 28-34N, longitude: 077-07E, altitude: 220 m

Observation

Le bulletin a été fait il y a 40 minutes, à 03:30 UTC
Vent 9 kt de ouest
Température 36°C
Humidité 39%
Pression 999 hPa
Visibilité: 2800 m
Quelques nuages à une hauteur de 10000 ft
brume sèche

METAR: VIDP 250330Z 28009KT 2800 HZ FEW100 36/20 Q0999 NOSIG

Heure: 09:40 (04:10 UTC)

Prévision

Le bulletin a été fait il y a 2 heures et 10 minutes, à 02:00 UTC
Prévision valable du 25 à 03 UTC au 25 à 12 UTC
Vent 10 kt de ouest/nord-ouest avec des rafales jusqu'à 20 kt
Visibilité: 2800 m
Quelques nuages à une hauteur de 4000 ft
Nuages épars à une hauteur de 10000 ft
brume sèche
Evoluant progressivement
du 25 à 05 UTC au 25 à 07 UTC
Visibilité: 4000 m
brume sèche, poussière généralisée

TAF: VIDP 250200Z 2503/2512 30010G20KT 2800 HZ FEW040 SCT100 BECMG 2505/2507 4000 HZ DU

Observations et prévisions météorologiques de plus de 4000 aéroports (messages METAR et TAF).

Les stations disponibles sont représentées par des disques jaunes et rouges sur la carte.

Passer la souris dessus pour voir le nom de la station.

Cliquer dessus pour voir les observations et prévisions météorologiques.

Pour changer de carte: cliquez sur les boutons verts avec une croix noire pour zoomer, sur le bouton vert avec un tiret pour effectuer un zoom arrière, ou sur les flèches vertes pour les cartes adjacentes.


METAR-TAF: